sensor_id;sensor_type;location;lat;lon;timestamp;P1;durP1;ratioP1;P2;durP2;ratioP2
69434;SDS011;56625;54.322;18.582;2022-12-31T00:01:24;10.20;;;3.90;;
69434;SDS011;56625;54.322;18.582;2022-12-31T00:03:54;10.20;;;3.80;;
69434;SDS011;56625;54.322;18.582;2022-12-31T00:06:31;15.00;;;3.90;;
69434;SDS011;56625;54.322;18.582;2022-12-31T00:09:03;17.40;;;4.20;;
69434;SDS011;56625;54.322;18.582;2022-12-31T00:11:34;11.50;;;3.70;;
69434;SDS011;56625;54.322;18.582;2022-12-31T00:14:03;12.20;;;3.90;;
69434;SDS011;56625;54.322;18.582;2022-12-31T00:16:34;12.70;;;4.70;;
69434;SDS011;56625;54.322;18.582;2022-12-31T00:19:06;12.40;;;4.50;;
69434;SDS011;56625;54.322;18.582;2022-12-31T00:21:36;11.50;;;3.60;;
69434;SDS011;56625;54.322;18.582;2022-12-31T00:24:05;18.10;;;6.10;;
69434;SDS011;56625;54.322;18.582;2022-12-31T00:26:34;8.70;;;2.80;;
69434;SDS011;56625;54.322;18.582;2022-12-31T00:29:03;16.10;;;6.20;;
69434;SDS011;56625;54.322;18.582;2022-12-31T00:31:35;10.20;;;3.30;;
69434;SDS011;56625;54.322;18.582;2022-12-31T00:34:05;9.80;;;3.30;;
69434;SDS011;56625;54.322;18.582;2022-12-31T00:36:36;13.30;;;4.20;;
69434;SDS011;56625;54.322;18.582;2022-12-31T00:39:06;15.20;;;5.70;;
69434;SDS011;56625;54.322;18.582;2022-12-31T00:41:35;12.20;;;4.10;;
69434;SDS011;56625;54.322;18.582;2022-12-31T00:44:03;11.30;;;3.90;;
69434;SDS011;56625;54.322;18.582;2022-12-31T00:46:31;12.90;;;4.60;;
69434;SDS011;56625;54.322;18.582;2022-12-31T00:48:59;14.00;;;3.60;;
69434;SDS011;56625;54.322;18.582;2022-12-31T00:51:27;9.00;;;2.40;;
69434;SDS011;56625;54.322;18.582;2022-12-31T00:53:56;10.20;;;3.80;;
69434;SDS011;56625;54.322;18.582;2022-12-31T00:56:27;17.10;;;6.10;;
69434;SDS011;56625;54.322;18.582;2022-12-31T00:58:58;13.80;;;5.90;;
69434;SDS011;56625;54.322;18.582;2022-12-31T01:01:29;11.90;;;5.00;;
69434;SDS011;56625;54.322;18.582;2022-12-31T01:04:02;12.80;;;4.80;;
69434;SDS011;56625;54.322;18.582;2022-12-31T01:06:32;16.70;;;5.60;;
69434;SDS011;56625;54.322;18.582;2022-12-31T01:09:01;10.30;;;3.00;;
69434;SDS011;56625;54.322;18.582;2022-12-31T01:11:31;14.00;;;5.10;;
69434;SDS011;56625;54.322;18.582;2022-12-31T01:14:03;9.70;;;3.90;;
69434;SDS011;56625;54.322;18.582;2022-12-31T01:16:38;13.40;;;6.00;;
69434;SDS011;56625;54.322;18.582;2022-12-31T01:19:12;9.60;;;3.00;;
69434;SDS011;56625;54.322;18.582;2022-12-31T01:21:52;10.30;;;3.10;;
69434;SDS011;56625;54.322;18.582;2022-12-31T01:24:20;10.90;;;3.20;;
69434;SDS011;56625;54.322;18.582;2022-12-31T01:26:48;11.90;;;5.10;;
69434;SDS011;56625;54.322;18.582;2022-12-31T01:29:18;11.00;;;5.20;;
69434;SDS011;56625;54.322;18.582;2022-12-31T01:31:46;13.30;;;6.00;;
69434;SDS011;56625;54.322;18.582;2022-12-31T01:34:14;8.50;;;2.90;;
69434;SDS011;56625;54.322;18.582;2022-12-31T01:36:41;13.20;;;6.10;;
69434;SDS011;56625;54.322;18.582;2022-12-31T01:39:10;9.80;;;4.20;;
69434;SDS011;56625;54.322;18.582;2022-12-31T01:41:41;14.00;;;7.10;;
69434;SDS011;56625;54.322;18.582;2022-12-31T01:49:40;12.60;;;5.40;;
69434;SDS011;56625;54.322;18.582;2022-12-31T01:52:29;9.20;;;3.40;;
69434;SDS011;56625;54.322;18.582;2022-12-31T01:57:56;12.20;;;3.40;;
69434;SDS011;56625;54.322;18.582;2022-12-31T02:00:28;13.10;;;4.30;;
69434;SDS011;56625;54.322;18.582;2022-12-31T02:02:56;10.70;;;3.40;;
69434;SDS011;56625;54.322;18.582;2022-12-31T02:05:32;11.70;;;5.20;;
69434;SDS011;56625;54.322;18.582;2022-12-31T02:08:05;11.10;;;4.10;;
69434;SDS011;56625;54.322;18.582;2022-12-31T02:10:34;12.90;;;5.30;;
69434;SDS011;56625;54.322;18.582;2022-12-31T02:13:02;10.00;;;3.20;;
69434;SDS011;56625;54.322;18.582;2022-12-31T02:16:11;13.50;;;4.40;;
69434;SDS011;56625;54.322;18.582;2022-12-31T02:19:04;9.00;;;3.50;;
69434;SDS011;56625;54.322;18.582;2022-12-31T02:22:12;15.20;;;5.70;;
69434;SDS011;56625;54.322;18.582;2022-12-31T02:31:11;11.20;;;3.10;;
69434;SDS011;56625;54.322;18.582;2022-12-31T02:36:42;14.70;;;5.50;;
69434;SDS011;56625;54.322;18.582;2022-12-31T02:39:13;8.50;;;3.10;;
69434;SDS011;56625;54.322;18.582;2022-12-31T02:41:47;10.00;;;2.40;;
69434;SDS011;56625;54.322;18.582;2022-12-31T02:44:32;8.40;;;2.60;;
69434;SDS011;56625;54.322;18.582;2022-12-31T02:52:45;8.90;;;3.00;;
69434;SDS011;56625;54.322;18.582;2022-12-31T02:55:39;13.40;;;4.60;;
69434;SDS011;56625;54.322;18.582;2022-12-31T03:01:23;12.70;;;3.30;;
69434;SDS011;56625;54.322;18.582;2022-12-31T03:04:14;10.60;;;2.70;;
69434;SDS011;56625;54.322;18.582;2022-12-31T03:07:01;9.50;;;2.60;;
69434;SDS011;56625;54.322;18.582;2022-12-31T03:09:31;9.70;;;2.70;;
69434;SDS011;56625;54.322;18.582;2022-12-31T03:12:00;9.90;;;2.40;;
69434;SDS011;56625;54.322;18.582;2022-12-31T03:14:48;8.50;;;2.20;;
69434;SDS011;56625;54.322;18.582;2022-12-31T03:17:17;10.60;;;3.40;;
69434;SDS011;56625;54.322;18.582;2022-12-31T03:19:45;8.30;;;2.80;;
69434;SDS011;56625;54.322;18.582;2022-12-31T03:22:35;12.20;;;5.30;;
69434;SDS011;56625;54.322;18.582;2022-12-31T03:28:02;10.50;;;3.30;;
69434;SDS011;56625;54.322;18.582;2022-12-31T03:30:43;8.00;;;2.80;;
69434;SDS011;56625;54.322;18.582;2022-12-31T03:33:13;7.10;;;2.10;;
69434;SDS011;56625;54.322;18.582;2022-12-31T03:35:44;7.40;;;1.70;;
69434;SDS011;56625;54.322;18.582;2022-12-31T03:38:14;6.80;;;1.90;;
69434;SDS011;56625;54.322;18.582;2022-12-31T03:40:46;8.80;;;3.30;;
69434;SDS011;56625;54.322;18.582;2022-12-31T03:43:17;7.60;;;2.90;;
69434;SDS011;56625;54.322;18.582;2022-12-31T03:45:50;8.30;;;2.90;;
69434;SDS011;56625;54.322;18.582;2022-12-31T03:48:20;9.60;;;3.90;;
69434;SDS011;56625;54.322;18.582;2022-12-31T03:50:49;7.60;;;2.60;;
69434;SDS011;56625;54.322;18.582;2022-12-31T03:53:18;8.10;;;2.30;;
69434;SDS011;56625;54.322;18.582;2022-12-31T03:55:52;7.00;;;2.30;;
69434;SDS011;56625;54.322;18.582;2022-12-31T03:58:21;8.70;;;3.00;;
69434;SDS011;56625;54.322;18.582;2022-12-31T04:00:49;7.90;;;2.20;;
69434;SDS011;56625;54.322;18.582;2022-12-31T04:03:17;7.40;;;2.70;;
69434;SDS011;56625;54.322;18.582;2022-12-31T04:05:52;9.60;;;2.80;;
69434;SDS011;56625;54.322;18.582;2022-12-31T04:08:20;7.70;;;2.40;;
69434;SDS011;56625;54.322;18.582;2022-12-31T04:10:49;8.70;;;2.40;;
69434;SDS011;56625;54.322;18.582;2022-12-31T04:13:17;8.50;;;2.90;;
69434;SDS011;56625;54.322;18.582;2022-12-31T04:15:48;7.60;;;2.50;;
69434;SDS011;56625;54.322;18.582;2022-12-31T04:18:17;8.50;;;3.00;;
69434;SDS011;56625;54.322;18.582;2022-12-31T04:20:45;9.90;;;3.70;;
69434;SDS011;56625;54.322;18.582;2022-12-31T04:23:13;6.70;;;2.70;;
69434;SDS011;56625;54.322;18.582;2022-12-31T04:25:41;8.70;;;3.00;;
69434;SDS011;56625;54.322;18.582;2022-12-31T04:28:09;7.00;;;2.00;;
69434;SDS011;56625;54.322;18.582;2022-12-31T04:30:37;7.90;;;3.30;;
69434;SDS011;56625;54.322;18.582;2022-12-31T04:33:06;7.30;;;2.40;;
69434;SDS011;56625;54.322;18.582;2022-12-31T04:35:34;9.20;;;2.60;;
69434;SDS011;56625;54.322;18.582;2022-12-31T04:38:02;10.20;;;3.60;;
69434;SDS011;56625;54.322;18.582;2022-12-31T04:40:30;8.40;;;3.20;;
69434;SDS011;56625;54.322;18.582;2022-12-31T04:42:58;9.90;;;2.60;;
69434;SDS011;56625;54.322;18.582;2022-12-31T04:45:26;9.50;;;3.30;;
69434;SDS011;56625;54.322;18.582;2022-12-31T04:47:54;9.30;;;3.50;;
69434;SDS011;56625;54.322;18.582;2022-12-31T04:50:22;9.60;;;3.30;;
69434;SDS011;56625;54.322;18.582;2022-12-31T04:52:50;7.70;;;2.50;;
69434;SDS011;56625;54.322;18.582;2022-12-31T04:55:18;8.60;;;2.30;;
69434;SDS011;56625;54.322;18.582;2022-12-31T04:57:46;7.40;;;2.50;;
69434;SDS011;56625;54.322;18.582;2022-12-31T05:00:14;9.70;;;3.20;;
69434;SDS011;56625;54.322;18.582;2022-12-31T05:02:42;9.90;;;3.70;;
69434;SDS011;56625;54.322;18.582;2022-12-31T05:05:10;9.00;;;3.50;;
69434;SDS011;56625;54.322;18.582;2022-12-31T05:07:38;7.10;;;2.50;;
69434;SDS011;56625;54.322;18.582;2022-12-31T05:10:06;6.70;;;2.40;;
69434;SDS011;56625;54.322;18.582;2022-12-31T05:12:34;8.70;;;3.30;;
69434;SDS011;56625;54.322;18.582;2022-12-31T05:15:02;7.50;;;3.00;;
69434;SDS011;56625;54.322;18.582;2022-12-31T05:17:31;7.40;;;2.80;;
69434;SDS011;56625;54.322;18.582;2022-12-31T05:19:58;7.10;;;2.70;;
69434;SDS011;56625;54.322;18.582;2022-12-31T05:22:26;9.30;;;2.90;;
69434;SDS011;56625;54.322;18.582;2022-12-31T05:24:58;9.10;;;4.10;;
69434;SDS011;56625;54.322;18.582;2022-12-31T05:27:28;7.70;;;2.70;;
69434;SDS011;56625;54.322;18.582;2022-12-31T05:29:58;8.80;;;2.90;;
69434;SDS011;56625;54.322;18.582;2022-12-31T05:32:27;8.40;;;3.20;;
69434;SDS011;56625;54.322;18.582;2022-12-31T05:34:55;7.60;;;2.50;;
69434;SDS011;56625;54.322;18.582;2022-12-31T05:37:25;10.90;;;5.20;;
69434;SDS011;56625;54.322;18.582;2022-12-31T05:39:55;7.60;;;2.70;;
69434;SDS011;56625;54.322;18.582;2022-12-31T05:42:23;8.20;;;2.90;;
69434;SDS011;56625;54.322;18.582;2022-12-31T05:44:52;10.30;;;3.70;;
69434;SDS011;56625;54.322;18.582;2022-12-31T05:47:20;7.90;;;3.10;;
69434;SDS011;56625;54.322;18.582;2022-12-31T05:49:48;8.20;;;3.20;;
69434;SDS011;56625;54.322;18.582;2022-12-31T05:52:17;7.70;;;2.80;;
69434;SDS011;56625;54.322;18.582;2022-12-31T05:54:46;7.20;;;2.60;;
69434;SDS011;56625;54.322;18.582;2022-12-31T05:57:14;9.80;;;3.50;;
69434;SDS011;56625;54.322;18.582;2022-12-31T05:59:42;10.70;;;3.60;;
69434;SDS011;56625;54.322;18.582;2022-12-31T06:02:10;9.10;;;3.40;;
69434;SDS011;56625;54.322;18.582;2022-12-31T06:04:38;9.50;;;4.50;;
69434;SDS011;56625;54.322;18.582;2022-12-31T06:07:06;9.60;;;3.90;;
69434;SDS011;56625;54.322;18.582;2022-12-31T06:09:34;7.70;;;3.10;;
69434;SDS011;56625;54.322;18.582;2022-12-31T06:12:02;8.10;;;3.40;;
69434;SDS011;56625;54.322;18.582;2022-12-31T06:14:30;9.20;;;3.50;;
69434;SDS011;56625;54.322;18.582;2022-12-31T06:16:58;9.40;;;2.90;;
69434;SDS011;56625;54.322;18.582;2022-12-31T06:19:26;8.60;;;3.00;;
69434;SDS011;56625;54.322;18.582;2022-12-31T06:21:54;10.50;;;4.10;;
69434;SDS011;56625;54.322;18.582;2022-12-31T06:24:22;9.40;;;4.10;;
69434;SDS011;56625;54.322;18.582;2022-12-31T06:26:50;7.90;;;3.10;;
69434;SDS011;56625;54.322;18.582;2022-12-31T06:29:18;8.10;;;3.40;;
69434;SDS011;56625;54.322;18.582;2022-12-31T06:31:46;9.10;;;2.90;;
69434;SDS011;56625;54.322;18.582;2022-12-31T06:34:14;7.90;;;3.00;;
69434;SDS011;56625;54.322;18.582;2022-12-31T06:36:42;9.30;;;4.10;;
69434;SDS011;56625;54.322;18.582;2022-12-31T06:39:09;9.30;;;3.00;;
69434;SDS011;56625;54.322;18.582;2022-12-31T06:41:37;6.90;;;2.90;;
69434;SDS011;56625;54.322;18.582;2022-12-31T06:44:05;10.30;;;3.70;;
69434;SDS011;56625;54.322;18.582;2022-12-31T06:46:33;9.60;;;3.80;;
69434;SDS011;56625;54.322;18.582;2022-12-31T06:49:01;9.50;;;4.20;;
69434;SDS011;56625;54.322;18.582;2022-12-31T06:51:29;8.10;;;3.10;;
69434;SDS011;56625;54.322;18.582;2022-12-31T06:53:57;7.30;;;2.30;;
69434;SDS011;56625;54.322;18.582;2022-12-31T06:56:26;8.10;;;2.70;;
69434;SDS011;56625;54.322;18.582;2022-12-31T06:59:02;6.20;;;2.30;;
69434;SDS011;56625;54.322;18.582;2022-12-31T07:19:58;9.00;;;2.50;;
69434;SDS011;56625;54.322;18.582;2022-12-31T07:22:31;8.90;;;2.40;;
69434;SDS011;56625;54.322;18.582;2022-12-31T07:25:00;8.00;;;3.30;;
69434;SDS011;56625;54.322;18.582;2022-12-31T07:27:39;8.60;;;3.50;;
69434;SDS011;56625;54.322;18.582;2022-12-31T07:36:35;6.80;;;2.40;;
69434;SDS011;56625;54.322;18.582;2022-12-31T07:39:25;7.90;;;3.40;;
69434;SDS011;56625;54.322;18.582;2022-12-31T07:42:25;8.00;;;3.10;;
69434;SDS011;56625;54.322;18.582;2022-12-31T07:45:37;10.10;;;3.30;;
69434;SDS011;56625;54.322;18.582;2022-12-31T07:48:25;9.60;;;2.90;;
69434;SDS011;56625;54.322;18.582;2022-12-31T07:50:56;6.20;;;1.90;;
69434;SDS011;56625;54.322;18.582;2022-12-31T07:53:25;8.10;;;2.40;;
69434;SDS011;56625;54.322;18.582;2022-12-31T07:55:56;8.00;;;3.10;;
69434;SDS011;56625;54.322;18.582;2022-12-31T08:01:38;6.10;;;2.00;;
69434;SDS011;56625;54.322;18.582;2022-12-31T08:04:26;8.70;;;2.90;;
69434;SDS011;56625;54.322;18.582;2022-12-31T08:07:17;5.50;;;2.00;;
69434;SDS011;56625;54.322;18.582;2022-12-31T08:10:05;7.90;;;3.10;;
69434;SDS011;56625;54.322;18.582;2022-12-31T08:12:45;6.10;;;2.10;;
69434;SDS011;56625;54.322;18.582;2022-12-31T08:15:17;5.60;;;1.90;;
69434;SDS011;56625;54.322;18.582;2022-12-31T08:17:49;7.00;;;2.20;;
69434;SDS011;56625;54.322;18.582;2022-12-31T08:20:18;9.00;;;3.30;;
69434;SDS011;56625;54.322;18.582;2022-12-31T08:26:26;6.90;;;2.40;;
69434;SDS011;56625;54.322;18.582;2022-12-31T08:29:02;5.40;;;1.70;;
69434;SDS011;56625;54.322;18.582;2022-12-31T08:31:59;8.20;;;2.10;;
69434;SDS011;56625;54.322;18.582;2022-12-31T08:41:24;8.20;;;2.60;;
69434;SDS011;56625;54.322;18.582;2022-12-31T08:44:19;6.90;;;1.80;;
69434;SDS011;56625;54.322;18.582;2022-12-31T08:47:17;5.20;;;1.90;;
69434;SDS011;56625;54.322;18.582;2022-12-31T08:50:13;7.10;;;2.20;;
69434;SDS011;56625;54.322;18.582;2022-12-31T08:52:46;6.10;;;2.30;;
69434;SDS011;56625;54.322;18.582;2022-12-31T08:55:17;7.60;;;2.50;;
69434;SDS011;56625;54.322;18.582;2022-12-31T09:00:22;4.90;;;1.30;;
69434;SDS011;56625;54.322;18.582;2022-12-31T09:11:39;8.80;;;2.70;;
69434;SDS011;56625;54.322;18.582;2022-12-31T09:19:50;5.90;;;2.10;;
69434;SDS011;56625;54.322;18.582;2022-12-31T09:22:19;7.60;;;2.60;;
69434;SDS011;56625;54.322;18.582;2022-12-31T09:25:03;6.70;;;2.80;;
69434;SDS011;56625;54.322;18.582;2022-12-31T09:27:44;6.30;;;2.00;;
69434;SDS011;56625;54.322;18.582;2022-12-31T09:30:18;6.40;;;2.40;;
69434;SDS011;56625;54.322;18.582;2022-12-31T09:51:41;5.00;;;1.30;;
69434;SDS011;56625;54.322;18.582;2022-12-31T10:00:02;7.10;;;2.40;;
69434;SDS011;56625;54.322;18.582;2022-12-31T10:03:09;5.40;;;1.60;;
69434;SDS011;56625;54.322;18.582;2022-12-31T10:09:36;5.40;;;1.80;;
69434;SDS011;56625;54.322;18.582;2022-12-31T10:15:49;6.80;;;2.60;;
69434;SDS011;56625;54.322;18.582;2022-12-31T10:18:52;5.60;;;1.80;;
69434;SDS011;56625;54.322;18.582;2022-12-31T10:22:01;7.10;;;2.60;;
69434;SDS011;56625;54.322;18.582;2022-12-31T10:30:19;6.50;;;2.40;;
69434;SDS011;56625;54.322;18.582;2022-12-31T10:32:57;6.70;;;2.40;;
69434;SDS011;56625;54.322;18.582;2022-12-31T10:35:39;10.10;;;3.60;;
69434;SDS011;56625;54.322;18.582;2022-12-31T10:41:33;8.00;;;3.10;;
69434;SDS011;56625;54.322;18.582;2022-12-31T10:44:39;7.00;;;2.10;;
69434;SDS011;56625;54.322;18.582;2022-12-31T10:57:09;7.10;;;3.20;;
69434;SDS011;56625;54.322;18.582;2022-12-31T11:09:19;8.10;;;3.30;;
69434;SDS011;56625;54.322;18.582;2022-12-31T11:18:26;5.60;;;1.90;;
69434;SDS011;56625;54.322;18.582;2022-12-31T11:24:30;10.00;;;4.30;;
69434;SDS011;56625;54.322;18.582;2022-12-31T11:27:14;10.30;;;4.50;;
69434;SDS011;56625;54.322;18.582;2022-12-31T11:39:16;9.80;;;3.80;;
69434;SDS011;56625;54.322;18.582;2022-12-31T11:42:27;9.00;;;3.90;;
69434;SDS011;56625;54.322;18.582;2022-12-31T11:45:36;10.40;;;4.20;;
69434;SDS011;56625;54.322;18.582;2022-12-31T11:48:54;8.30;;;3.50;;
69434;SDS011;56625;54.322;18.582;2022-12-31T11:55:08;6.20;;;2.30;;
69434;SDS011;56625;54.322;18.582;2022-12-31T11:57:47;5.40;;;2.10;;
69434;SDS011;56625;54.322;18.582;2022-12-31T12:00:23;6.20;;;2.30;;
69434;SDS011;56625;54.322;18.582;2022-12-31T12:03:03;7.70;;;2.00;;
69434;SDS011;56625;54.322;18.582;2022-12-31T12:05:34;8.60;;;2.80;;
69434;SDS011;56625;54.322;18.582;2022-12-31T12:08:02;6.40;;;2.80;;
69434;SDS011;56625;54.322;18.582;2022-12-31T12:15:47;5.50;;;1.80;;
69434;SDS011;56625;54.322;18.582;2022-12-31T12:18:39;6.70;;;2.30;;
69434;SDS011;56625;54.322;18.582;2022-12-31T12:21:17;5.30;;;1.80;;
69434;SDS011;56625;54.322;18.582;2022-12-31T12:26:37;4.50;;;1.30;;
69434;SDS011;56625;54.322;18.582;2022-12-31T12:29:28;5.50;;;1.70;;
69434;SDS011;56625;54.322;18.582;2022-12-31T12:32:18;4.90;;;1.40;;
69434;SDS011;56625;54.322;18.582;2022-12-31T12:34:48;5.60;;;1.80;;
69434;SDS011;56625;54.322;18.582;2022-12-31T12:40:02;6.30;;;1.60;;
69434;SDS011;56625;54.322;18.582;2022-12-31T12:42:48;4.80;;;1.50;;
69434;SDS011;56625;54.322;18.582;2022-12-31T12:45:23;7.00;;;2.00;;
69434;SDS011;56625;54.322;18.582;2022-12-31T12:48:16;7.10;;;2.00;;
69434;SDS011;56625;54.322;18.582;2022-12-31T12:50:48;6.40;;;2.30;;
69434;SDS011;56625;54.322;18.582;2022-12-31T12:56:54;5.10;;;1.70;;
69434;SDS011;56625;54.322;18.582;2022-12-31T13:02:52;6.10;;;2.60;;
69434;SDS011;56625;54.322;18.582;2022-12-31T13:09:08;5.40;;;1.80;;
69434;SDS011;56625;54.322;18.582;2022-12-31T13:20:43;7.90;;;3.20;;
69434;SDS011;56625;54.322;18.582;2022-12-31T13:23:38;5.30;;;1.70;;
69434;SDS011;56625;54.322;18.582;2022-12-31T13:26:26;7.30;;;3.20;;
69434;SDS011;56625;54.322;18.582;2022-12-31T13:29:11;7.20;;;3.00;;
69434;SDS011;56625;54.322;18.582;2022-12-31T13:31:44;6.00;;;2.60;;
69434;SDS011;56625;54.322;18.582;2022-12-31T13:34:23;5.20;;;1.70;;
69434;SDS011;56625;54.322;18.582;2022-12-31T13:37:02;7.40;;;2.30;;
69434;SDS011;56625;54.322;18.582;2022-12-31T13:39:40;5.60;;;2.00;;
69434;SDS011;56625;54.322;18.582;2022-12-31T13:42:21;6.20;;;2.30;;
69434;SDS011;56625;54.322;18.582;2022-12-31T13:45:00;5.80;;;2.00;;
69434;SDS011;56625;54.322;18.582;2022-12-31T13:47:34;7.60;;;3.20;;
69434;SDS011;56625;54.322;18.582;2022-12-31T13:50:22;7.50;;;3.30;;
69434;SDS011;56625;54.322;18.582;2022-12-31T13:55:33;7.30;;;3.30;;
69434;SDS011;56625;54.322;18.582;2022-12-31T14:01:36;6.60;;;3.00;;
69434;SDS011;56625;54.322;18.582;2022-12-31T14:07:14;9.30;;;3.60;;
69434;SDS011;56625;54.322;18.582;2022-12-31T14:09:46;8.10;;;3.60;;
69434;SDS011;56625;54.322;18.582;2022-12-31T14:15:12;4.40;;;1.60;;
69434;SDS011;56625;54.322;18.582;2022-12-31T14:17:57;6.60;;;2.40;;
69434;SDS011;56625;54.322;18.582;2022-12-31T14:20:57;6.20;;;2.00;;
69434;SDS011;56625;54.322;18.582;2022-12-31T14:23:46;7.30;;;2.70;;
69434;SDS011;56625;54.322;18.582;2022-12-31T14:26:32;5.50;;;1.90;;
69434;SDS011;56625;54.322;18.582;2022-12-31T14:37:41;7.90;;;2.70;;
69434;SDS011;56625;54.322;18.582;2022-12-31T14:43:51;7.00;;;2.40;;
69434;SDS011;56625;54.322;18.582;2022-12-31T14:55:37;6.20;;;1.90;;
69434;SDS011;56625;54.322;18.582;2022-12-31T15:03:45;6.60;;;2.50;;
69434;SDS011;56625;54.322;18.582;2022-12-31T15:06:30;5.60;;;2.20;;
69434;SDS011;56625;54.322;18.582;2022-12-31T15:15:41;6.20;;;2.30;;
69434;SDS011;56625;54.322;18.582;2022-12-31T15:18:35;5.50;;;1.60;;
69434;SDS011;56625;54.322;18.582;2022-12-31T15:24:12;8.20;;;3.00;;
69434;SDS011;56625;54.322;18.582;2022-12-31T15:26:58;4.90;;;1.70;;
69434;SDS011;56625;54.322;18.582;2022-12-31T15:29:32;6.10;;;2.00;;
69434;SDS011;56625;54.322;18.582;2022-12-31T15:32:03;5.80;;;2.30;;
69434;SDS011;56625;54.322;18.582;2022-12-31T15:34:36;6.60;;;2.70;;
69434;SDS011;56625;54.322;18.582;2022-12-31T15:37:24;9.30;;;3.70;;
69434;SDS011;56625;54.322;18.582;2022-12-31T15:40:23;5.70;;;2.30;;
69434;SDS011;56625;54.322;18.582;2022-12-31T15:45:45;5.80;;;2.40;;
69434;SDS011;56625;54.322;18.582;2022-12-31T15:48:36;7.30;;;3.00;;
69434;SDS011;56625;54.322;18.582;2022-12-31T15:51:24;6.00;;;2.00;;
69434;SDS011;56625;54.322;18.582;2022-12-31T15:53:57;5.30;;;2.10;;
69434;SDS011;56625;54.322;18.582;2022-12-31T15:56:36;7.90;;;3.30;;
69434;SDS011;56625;54.322;18.582;2022-12-31T15:59:12;5.70;;;2.00;;
69434;SDS011;56625;54.322;18.582;2022-12-31T16:01:44;5.50;;;1.70;;
69434;SDS011;56625;54.322;18.582;2022-12-31T16:04:40;5.20;;;1.60;;
69434;SDS011;56625;54.322;18.582;2022-12-31T16:11:26;5.50;;;1.90;;
69434;SDS011;56625;54.322;18.582;2022-12-31T16:13:57;7.50;;;2.50;;
69434;SDS011;56625;54.322;18.582;2022-12-31T16:16:35;5.10;;;1.70;;
69434;SDS011;56625;54.322;18.582;2022-12-31T16:19:29;4.80;;;1.50;;
69434;SDS011;56625;54.322;18.582;2022-12-31T16:22:28;3.40;;;1.10;;
69434;SDS011;56625;54.322;18.582;2022-12-31T16:25:05;6.40;;;2.50;;
69434;SDS011;56625;54.322;18.582;2022-12-31T16:27:54;5.90;;;2.10;;
69434;SDS011;56625;54.322;18.582;2022-12-31T16:31:03;5.00;;;1.60;;
69434;SDS011;56625;54.322;18.582;2022-12-31T16:33:33;5.20;;;1.60;;
69434;SDS011;56625;54.322;18.582;2022-12-31T16:36:03;7.40;;;2.00;;
69434;SDS011;56625;54.322;18.582;2022-12-31T16:38:35;7.40;;;2.40;;
69434;SDS011;56625;54.322;18.582;2022-12-31T16:41:18;5.30;;;1.70;;
69434;SDS011;56625;54.322;18.582;2022-12-31T16:43:50;6.60;;;2.50;;
69434;SDS011;56625;54.322;18.582;2022-12-31T16:48:59;5.50;;;2.10;;
69434;SDS011;56625;54.322;18.582;2022-12-31T16:51:36;5.60;;;1.70;;
69434;SDS011;56625;54.322;18.582;2022-12-31T16:54:15;4.00;;;1.20;;
69434;SDS011;56625;54.322;18.582;2022-12-31T16:56:48;4.30;;;1.00;;
69434;SDS011;56625;54.322;18.582;2022-12-31T17:02:03;5.80;;;1.50;;
69434;SDS011;56625;54.322;18.582;2022-12-31T17:04:50;4.60;;;1.30;;
69434;SDS011;56625;54.322;18.582;2022-12-31T17:07:24;8.30;;;3.90;;
69434;SDS011;56625;54.322;18.582;2022-12-31T17:10:03;5.80;;;1.30;;
69434;SDS011;56625;54.322;18.582;2022-12-31T17:12:40;3.90;;;0.90;;
69434;SDS011;56625;54.322;18.582;2022-12-31T17:15:39;3.00;;;0.70;;
69434;SDS011;56625;54.322;18.582;2022-12-31T17:18:18;4.00;;;0.90;;
69434;SDS011;56625;54.322;18.582;2022-12-31T17:20:54;5.90;;;1.10;;
69434;SDS011;56625;54.322;18.582;2022-12-31T17:23:33;5.80;;;1.70;;
69434;SDS011;56625;54.322;18.582;2022-12-31T17:26:12;4.20;;;1.10;;
69434;SDS011;56625;54.322;18.582;2022-12-31T17:28:46;4.20;;;1.10;;
69434;SDS011;56625;54.322;18.582;2022-12-31T17:31:39;4.30;;;0.90;;
69434;SDS011;56625;54.322;18.582;2022-12-31T17:34:21;5.70;;;1.60;;
69434;SDS011;56625;54.322;18.582;2022-12-31T17:39:54;4.90;;;1.80;;
69434;SDS011;56625;54.322;18.582;2022-12-31T17:42:50;4.50;;;1.10;;
69434;SDS011;56625;54.322;18.582;2022-12-31T17:45:21;3.20;;;0.90;;
69434;SDS011;56625;54.322;18.582;2022-12-31T17:47:50;4.90;;;1.10;;
69434;SDS011;56625;54.322;18.582;2022-12-31T17:50:26;4.70;;;1.10;;
69434;SDS011;56625;54.322;18.582;2022-12-31T17:52:56;3.60;;;0.90;;
69434;SDS011;56625;54.322;18.582;2022-12-31T17:55:29;3.40;;;0.80;;
69434;SDS011;56625;54.322;18.582;2022-12-31T17:57:57;5.00;;;1.20;;
69434;SDS011;56625;54.322;18.582;2022-12-31T18:00:31;4.70;;;1.10;;
69434;SDS011;56625;54.322;18.582;2022-12-31T18:03:00;3.50;;;0.80;;
69434;SDS011;56625;54.322;18.582;2022-12-31T18:05:28;3.60;;;0.80;;
69434;SDS011;56625;54.322;18.582;2022-12-31T18:07:57;2.10;;;0.40;;
69434;SDS011;56625;54.322;18.582;2022-12-31T18:10:26;3.80;;;0.60;;
69434;SDS011;56625;54.322;18.582;2022-12-31T18:12:58;2.10;;;0.60;;
69434;SDS011;56625;54.322;18.582;2022-12-31T18:15:35;3.50;;;0.70;;
69434;SDS011;56625;54.322;18.582;2022-12-31T18:21:04;3.30;;;0.70;;
69434;SDS011;56625;54.322;18.582;2022-12-31T18:23:40;2.40;;;0.40;;
69434;SDS011;56625;54.322;18.582;2022-12-31T18:26:19;3.70;;;0.80;;
69434;SDS011;56625;54.322;18.582;2022-12-31T18:28:52;4.00;;;0.80;;
69434;SDS011;56625;54.322;18.582;2022-12-31T18:31:31;2.00;;;0.40;;
69434;SDS011;56625;54.322;18.582;2022-12-31T18:33:59;2.10;;;0.30;;
69434;SDS011;56625;54.322;18.582;2022-12-31T18:36:28;3.60;;;0.60;;
69434;SDS011;56625;54.322;18.582;2022-12-31T18:38:56;3.50;;;0.60;;
69434;SDS011;56625;54.322;18.582;2022-12-31T18:41:26;3.90;;;0.70;;
69434;SDS011;56625;54.322;18.582;2022-12-31T18:44:11;4.50;;;1.00;;
69434;SDS011;56625;54.322;18.582;2022-12-31T18:46:40;2.80;;;0.50;;
69434;SDS011;56625;54.322;18.582;2022-12-31T18:49:12;4.50;;;1.00;;
69434;SDS011;56625;54.322;18.582;2022-12-31T18:51:41;4.00;;;1.10;;
69434;SDS011;56625;54.322;18.582;2022-12-31T18:54:10;3.00;;;0.70;;
69434;SDS011;56625;54.322;18.582;2022-12-31T18:56:43;4.20;;;1.30;;
69434;SDS011;56625;54.322;18.582;2022-12-31T18:59:20;4.80;;;1.50;;
69434;SDS011;56625;54.322;18.582;2022-12-31T19:01:49;4.30;;;1.10;;
69434;SDS011;56625;54.322;18.582;2022-12-31T19:04:19;5.30;;;1.20;;
69434;SDS011;56625;54.322;18.582;2022-12-31T19:06:55;4.80;;;0.90;;
69434;SDS011;56625;54.322;18.582;2022-12-31T19:09:25;4.00;;;0.80;;
69434;SDS011;56625;54.322;18.582;2022-12-31T19:12:13;3.20;;;0.60;;
69434;SDS011;56625;54.322;18.582;2022-12-31T19:14:41;2.60;;;0.70;;
69434;SDS011;56625;54.322;18.582;2022-12-31T19:17:12;3.90;;;0.70;;
69434;SDS011;56625;54.322;18.582;2022-12-31T19:19:41;2.40;;;0.50;;
69434;SDS011;56625;54.322;18.582;2022-12-31T19:22:14;4.20;;;1.00;;
69434;SDS011;56625;54.322;18.582;2022-12-31T19:24:44;3.20;;;0.70;;
69434;SDS011;56625;54.322;18.582;2022-12-31T19:27:13;3.20;;;0.60;;
69434;SDS011;56625;54.322;18.582;2022-12-31T19:29:44;2.40;;;0.30;;
69434;SDS011;56625;54.322;18.582;2022-12-31T19:32:21;6.10;;;1.20;;
69434;SDS011;56625;54.322;18.582;2022-12-31T19:34:49;4.60;;;0.90;;
69434;SDS011;56625;54.322;18.582;2022-12-31T19:37:19;5.40;;;1.00;;
69434;SDS011;56625;54.322;18.582;2022-12-31T19:39:47;3.70;;;1.00;;
69434;SDS011;56625;54.322;18.582;2022-12-31T19:42:15;6.00;;;1.80;;
69434;SDS011;56625;54.322;18.582;2022-12-31T19:44:43;12.70;;;5.20;;
69434;SDS011;56625;54.322;18.582;2022-12-31T19:47:12;4.80;;;1.40;;